createdAt,value
2022-12-29T00:02:33.429Z,4.50
2022-12-29T00:07:34.923Z,3.05
2022-12-29T00:12:55.247Z,2.58
2022-12-29T00:17:56.814Z,2.78
2022-12-29T00:23:17.016Z,4.05
2022-12-29T00:28:38.530Z,2.90
2022-12-29T00:33:58.578Z,2.55
2022-12-29T00:39:28.335Z,2.22
2022-12-29T00:44:29.694Z,2.13
2022-12-29T00:49:31.823Z,4.00
2022-12-29T00:54:35.483Z,3.30
2022-12-29T00:59:40.937Z,2.65
2022-12-29T01:04:42.377Z,2.40
2022-12-29T01:10:02.250Z,2.42
2022-12-29T01:15:03.883Z,2.65
2022-12-29T01:20:05.816Z,2.55
2022-12-29T01:25:07.974Z,2.60
2022-12-29T01:30:10.142Z,2.63
2022-12-29T01:35:11.733Z,1.05
2022-12-29T01:40:13.398Z,1.63
2022-12-29T01:45:18.082Z,2.28
2022-12-29T01:50:27.123Z,3.57
2022-12-29T01:55:32.255Z,1.27
2022-12-29T02:00:34.094Z,1.83
2022-12-29T02:05:41.421Z,4.10
2022-12-29T02:10:44.441Z,2.22
2022-12-29T02:16:20.027Z,1.65
2022-12-29T02:21:42.656Z,3.50
2022-12-29T02:26:55.639Z,1.95
2022-12-29T02:32:06.792Z,1.95
2022-12-29T02:37:25.892Z,2.70
2022-12-29T02:42:49.510Z,1.10
2022-12-29T02:48:13.295Z,0.93
2022-12-29T02:53:18.621Z,1.77
2022-12-29T02:58:23.507Z,1.88
2022-12-29T03:03:24.978Z,1.67
2022-12-29T03:08:43.863Z,1.20
2022-12-29T03:14:12.180Z,1.00
2022-12-29T03:19:21.227Z,0.65
2022-12-29T03:24:27.844Z,1.58
2022-12-29T03:29:34.048Z,1.73
2022-12-29T03:34:37.133Z,1.38
2022-12-29T03:39:39.716Z,2.80
2022-12-29T03:44:44.737Z,1.20
2022-12-29T03:49:46.417Z,2.10
2022-12-29T03:54:49.689Z,2.45
2022-12-29T03:59:51.126Z,2.00
2022-12-29T04:04:52.583Z,2.72
2022-12-29T04:09:54.148Z,2.10
2022-12-29T04:14:55.535Z,1.27
2022-12-29T04:20:17.031Z,4.03
2022-12-29T04:25:18.400Z,1.88
2022-12-29T04:30:19.991Z,2.50
2022-12-29T04:35:21.385Z,1.13
2022-12-29T04:40:24.323Z,1.88
2022-12-29T04:45:25.670Z,1.05
2022-12-29T04:50:27.020Z,4.10
2022-12-29T04:55:28.541Z,2.20
2022-12-29T05:00:29.925Z,1.33
2022-12-29T05:05:31.269Z,2.65
2022-12-29T05:10:32.870Z,2.10
2022-12-29T05:15:34.641Z,2.50
2022-12-29T05:20:36.050Z,1.38
2022-12-29T05:25:37.538Z,1.10
2022-12-29T05:30:38.937Z,1.77
2022-12-29T05:35:40.412Z,1.13
2022-12-29T05:40:41.796Z,1.75
2022-12-29T05:45:43.246Z,1.75
2022-12-29T05:50:48.985Z,1.20
2022-12-29T05:55:50.489Z,2.25
2022-12-29T06:00:52.381Z,2.08
2022-12-29T06:05:53.754Z,1.17
2022-12-29T06:10:56.259Z,1.33
2022-12-29T06:15:58.219Z,0.98
2022-12-29T06:21:03.710Z,2.03
2022-12-29T06:26:05.445Z,2.05
2022-12-29T06:31:10.915Z,1.42
2022-12-29T06:36:12.274Z,1.90
2022-12-29T06:41:13.674Z,2.75
2022-12-29T06:46:15.424Z,1.88
2022-12-29T06:51:16.916Z,2.85
2022-12-29T06:56:19.848Z,2.67
2022-12-29T07:01:21.350Z,1.60
2022-12-29T07:06:23.852Z,1.95
2022-12-29T07:11:25.770Z,2.45
2022-12-29T07:16:27.190Z,3.05
2022-12-29T07:21:28.547Z,3.33
2022-12-29T07:26:35.933Z,1.85
2022-12-29T07:31:37.971Z,1.88
2022-12-29T07:36:39.541Z,1.90
2022-12-29T07:41:40.921Z,3.28
2022-12-29T07:46:53.976Z,4.53
2022-12-29T07:51:58.177Z,4.03
2022-12-29T07:57:01.212Z,3.08
2022-12-29T08:02:02.811Z,2.28
2022-12-29T08:07:04.319Z,6.00
2022-12-29T08:12:05.919Z,2.80
2022-12-29T08:17:07.412Z,3.45
2022-12-29T08:22:08.812Z,5.43
2022-12-29T08:27:19.684Z,2.40
2022-12-29T08:32:22.104Z,5.20
2022-12-29T08:37:29.039Z,2.80
2022-12-29T08:42:33.327Z,3.22
2022-12-29T08:47:34.857Z,2.30
2022-12-29T08:52:36.229Z,2.80
2022-12-29T08:57:37.955Z,3.58
2022-12-29T09:02:39.529Z,2.97
2022-12-29T09:07:41.181Z,4.15
2022-12-29T09:12:42.589Z,3.15
2022-12-29T09:17:47.040Z,3.17
2022-12-29T09:22:49.207Z,2.55
2022-12-29T09:27:53.495Z,2.53
2022-12-29T09:32:55.565Z,3.38
2022-12-29T09:37:57.149Z,5.22
2022-12-29T09:43:13.874Z,2.67
2022-12-29T09:48:27.244Z,2.92
2022-12-29T09:53:39.065Z,3.40
2022-12-29T09:58:45.848Z,2.42
2022-12-29T10:03:52.679Z,4.10
2022-12-29T10:09:33.175Z,3.40
2022-12-29T10:14:53.053Z,1.98
2022-12-29T10:20:06.548Z,3.50
2022-12-29T10:25:16.150Z,1.77
2022-12-29T10:30:18.237Z,1.30
2022-12-29T10:35:21.560Z,0.88
2022-12-29T10:40:37.269Z,3.30
2022-12-29T10:45:40.107Z,0.95
2022-12-29T10:50:43.937Z,2.45
2022-12-29T10:55:46.734Z,5.20
2022-12-29T11:00:54.551Z,2.70
2022-12-29T11:06:01.880Z,2.45
2022-12-29T11:11:09.785Z,2.50
2022-12-29T11:16:12.828Z,1.67
2022-12-29T11:21:28.675Z,3.95
2022-12-29T11:26:34.646Z,2.15
2022-12-29T11:31:42.624Z,1.00
2022-12-29T11:36:44.377Z,1.75
2022-12-29T11:41:53.454Z,2.67
2022-12-29T11:46:55.925Z,1.90
2022-12-29T11:51:57.837Z,1.53
2022-12-29T11:57:19.434Z,1.30
2022-12-29T12:02:43.911Z,2.63
2022-12-29T12:07:50.613Z,3.65
2022-12-29T12:13:03.374Z,2.65
2022-12-29T12:18:12.426Z,3.50
2022-12-29T12:23:28.499Z,0.80
2022-12-29T12:28:36.297Z,2.80
2022-12-29T12:33:43.784Z,0.93
2022-12-29T12:39:11.606Z,3.45
2022-12-29T12:44:24.471Z,2.90
2022-12-29T12:49:56.538Z,2.22
2022-12-29T12:55:03.023Z,2.60
2022-12-29T13:00:18.887Z,7.60
2022-12-29T13:05:27.252Z,0.73
2022-12-29T13:10:53.558Z,1.23
2022-12-29T13:16:14.700Z,1.95
2022-12-29T13:22:06.524Z,1.10
2022-12-29T13:27:33.544Z,2.33
2022-12-29T13:32:50.835Z,2.97
2022-12-29T13:37:57.732Z,2.10
2022-12-29T13:43:01.698Z,4.45
2022-12-29T13:53:26.518Z,1.65
2022-12-29T13:58:30.866Z,4.73
2022-12-29T14:03:44.744Z,2.17
2022-12-29T14:08:47.366Z,3.83
2022-12-29T14:13:49.751Z,4.00
2022-12-29T14:18:51.493Z,3.67
2022-12-29T14:23:54.845Z,2.75
2022-12-29T14:29:01.326Z,4.45
2022-12-29T14:34:11.811Z,1.77
2022-12-29T14:39:33.402Z,4.65
2022-12-29T14:44:46.231Z,2.45
2022-12-29T14:49:48.274Z,2.92
2022-12-29T14:54:50.863Z,3.25
2022-12-29T15:00:01.687Z,4.68
2022-12-29T15:05:04.426Z,2.58
2022-12-29T15:10:14.741Z,5.00
2022-12-29T15:15:21.091Z,2.50
2022-12-29T15:20:28.978Z,3.38
2022-12-29T15:25:31.904Z,3.83
2022-12-29T15:30:33.558Z,2.92
2022-12-29T15:35:38.419Z,3.55
2022-12-29T15:40:39.787Z,3.13
2022-12-29T15:45:41.530Z,4.28
2022-12-29T15:50:44.121Z,3.42
2022-12-29T15:55:48.451Z,4.55
2022-12-29T16:00:58.588Z,3.15
2022-12-29T16:06:25.571Z,4.97
2022-12-29T16:11:32.081Z,3.78
2022-12-29T16:16:39.116Z,4.25
2022-12-29T16:21:44.975Z,4.03
2022-12-29T16:26:53.075Z,2.90
2022-12-29T16:32:01.693Z,7.13
2022-12-29T16:37:33.600Z,6.38
2022-12-29T16:42:50.832Z,4.95
2022-12-29T16:48:12.025Z,3.88
2022-12-29T16:53:40.592Z,3.92
2022-12-29T16:58:46.424Z,3.05
2022-12-29T17:03:57.645Z,2.90
2022-12-29T17:08:59.266Z,3.70
2022-12-29T17:14:00.739Z,2.70
2022-12-29T17:19:02.592Z,2.88
2022-12-29T17:24:06.935Z,3.70
2022-12-29T17:29:16.101Z,3.67
2022-12-29T17:34:17.866Z,5.05
2022-12-29T17:39:19.310Z,4.32
2022-12-29T17:44:23.349Z,3.80
2022-12-29T17:49:24.874Z,3.80
2022-12-29T17:54:26.430Z,5.38
2022-12-29T17:59:27.776Z,5.85
2022-12-29T18:04:29.121Z,6.05
2022-12-29T18:09:31.639Z,5.20
2022-12-29T18:14:33.053Z,4.50
2022-12-29T18:19:36.262Z,5.53
2022-12-29T18:24:37.849Z,4.13
2022-12-29T18:29:40.659Z,5.32
2022-12-29T18:34:42.461Z,6.07
2022-12-29T18:39:43.838Z,4.28
2022-12-29T18:44:45.268Z,5.95
2022-12-29T18:49:46.639Z,4.53
2022-12-29T18:54:47.986Z,6.43
2022-12-29T18:59:49.336Z,8.50
2022-12-29T19:04:53.156Z,4.80
2022-12-29T19:09:56.054Z,5.97
2022-12-29T19:14:57.411Z,5.93
2022-12-29T19:20:00.891Z,6.38
2022-12-29T19:25:02.673Z,7.18
2022-12-29T19:30:04.465Z,6.25
2022-12-29T19:35:06.424Z,8.43
2022-12-29T19:40:09.540Z,6.85
2022-12-29T19:45:12.405Z,6.75
2022-12-29T19:50:16.145Z,7.07
2022-12-29T19:55:18.297Z,4.97
2022-12-29T20:00:19.824Z,4.53
2022-12-29T20:05:21.354Z,6.40
2022-12-29T20:10:23.738Z,6.35
2022-12-29T20:15:25.136Z,6.35
2022-12-29T20:20:26.567Z,6.78
2022-12-29T20:25:46.579Z,7.57
2022-12-29T20:31:06.736Z,5.45
2022-12-29T20:36:11.327Z,6.50
2022-12-29T20:41:13.784Z,7.10
2022-12-29T20:46:20.419Z,7.70
2022-12-29T20:51:23.334Z,7.00
2022-12-29T20:56:27.055Z,6.97
2022-12-29T21:01:28.960Z,6.82
2022-12-29T21:06:30.475Z,5.60
2022-12-29T21:11:31.985Z,6.15
2022-12-29T21:16:33.420Z,5.38
2022-12-29T21:21:35.074Z,5.75
2022-12-29T21:26:36.741Z,8.32
2022-12-29T21:31:38.142Z,7.38
2022-12-29T21:36:40.638Z,9.38
2022-12-29T21:41:42.564Z,6.85
2022-12-29T21:46:46.934Z,4.18
2022-12-29T21:51:51.317Z,7.43
2022-12-29T21:56:52.641Z,7.00
2022-12-29T22:02:12.808Z,5.05
2022-12-29T22:07:33.079Z,6.10
2022-12-29T22:12:54.055Z,2.60
2022-12-29T22:17:55.879Z,5.38
2022-12-29T22:22:57.677Z,6.35
2022-12-29T22:27:59.878Z,5.35
2022-12-29T22:33:02.207Z,5.63
2022-12-29T22:38:03.659Z,6.90
2022-12-29T22:43:11.091Z,7.68
2022-12-29T22:48:14.415Z,6.95
2022-12-29T22:53:15.847Z,9.32
2022-12-29T22:58:17.224Z,7.15
2022-12-29T23:03:19.042Z,6.65
2022-12-29T23:08:20.563Z,5.57
2022-12-29T23:13:21.937Z,5.65
2022-12-29T23:18:24.178Z,7.80
2022-12-29T23:23:48.900Z,5.00
2022-12-29T23:28:56.288Z,5.38
2022-12-29T23:34:03.927Z,3.78
2022-12-29T23:39:06.499Z,6.18
2022-12-29T23:44:07.913Z,7.18
2022-12-29T23:49:09.598Z,6.53
2022-12-29T23:54:10.967Z,13.57
2022-12-29T23:59:12.338Z,4.63
